Carlos Rovirosa Pérez International Airport
MMVA : rendu visible

Aérodrome :











RETROUVEZ-NOUS SUR...

 
LOGIN :

S'inscrire | Disclaimer

   EN    FR    IT 

 









Légende :    VFR   VFR Marginal   IFR   IFR Intensif   IFR Très Intensif
Visi : 
Plafond : 
>= 8 km
>= 3000ft
5 à 8 km
1000 à 3000 ft
1500m à 5 km
500 à 1000 ft
800 à 1500m
200 à 500 ft
< 800m
< 200 ft
Symboles :   Orages  Brouillard  Fortes neiges  Fortes précipitations  Vent > 20 kt






- Altitude de l'aérodrome : 46 ft
- Code IATA : VSA


MMVA - Carlos Rovirosa Pérez International

METARs EXPIRÉS :
  • 270243Z 34014G29KT 2SM RA BKN006 OVC008 19/19 A3021 RMK SLP227 52040 921 8/7// VRBL CONDS

TAF TAF MMVA
Valide du 27 à 06h jusqu'au 28 à 06h UTC


270512Z 2706/2806 32015G25KT 3SM DZ OVC007
TEMPO 2710/2714 1SM DZ BR OVC005
FM271600 32010G20KT 5SM HZ BKN010 OVC050
FM271800 33015KT 6SM HZ BKN015 BKN050
TEMPO 2721/2801 4SM -RA



MET'MAP, la Météo Aéronautique d'un coup d'oeil ! - Copyright ORBIFLY Décembre 2007 - Disclaimer

ORBIFLY MET'MAP TEAM :

Programmation & Développement : Alexandra Zaïnal
Sur une idée originale de : Baudouin d'Aumeries
Assistance à la programmation : Marc-Olivier Méhu
Soutien technique & logistique : Manuel Goepfert

Contact : metmap@orbifly.com




SOURCES & CREDITS :

   NOAA       Earth
Advisory